Time;durP1;ratioP1;P1;durP2;ratioP2;P2;SDS_P1;SDS_P2;PMS_P1;PMS_P2;Temp;Humidity;BMP_temperature;BMP_pressure;BME280_temperature;BME280_humidity;BME280_pressure;Samples;Min_cycle;Max_cycle;Signal;HPM_P1;HPM_P2
2021/12/25 00:00:55;;;;;;;4.60;2.70;;;8.40;76.50;;;;;;4989708;28;46486;-81
2021/12/25 00:03:26;;;;;;;5.43;2.43;;;8.40;76.60;;;;;;4994439;28;46722;-80
2021/12/25 00:05:52;;;;;;;4.37;2.17;;;8.40;76.50;;;;;;4992204;28;46882;-81
2021/12/25 00:08:26;;;;;;;2.60;1.70;;;8.40;76.60;;;;;;4989024;28;46337;-79
2021/12/25 00:10:55;;;;;;;3.70;1.90;;;8.40;76.50;;;;;;4995572;28;46370;-80
2021/12/25 00:13:21;;;;;;;4.77;2.30;;;8.40;76.60;;;;;;4990643;28;46627;-80
2021/12/25 00:15:50;;;;;;;3.47;2.00;;;8.40;76.50;;;;;;4990560;28;46509;-77
2021/12/25 00:18:17;;;;;;;2.93;2.03;;;8.40;76.60;;;;;;4989993;28;46175;-80
2021/12/25 00:20:43;;;;;;;7.97;2.23;;;8.40;76.50;;;;;;4994191;28;46403;-80
2021/12/25 00:23:10;;;;;;;3.00;2.07;;;8.50;76.70;;;;;;4995292;28;46288;-80
2021/12/25 00:25:41;;;;;;;6.63;2.20;;;8.50;76.60;;;;;;4995687;28;48974;-81
2021/12/25 00:28:50;;;;;;;2.70;2.03;;;8.40;76.50;;;;;;4995526;28;46364;-81
2021/12/25 00:31:46;;;;;;;7.83;2.60;;;8.40;76.50;;;;;;4996380;28;46300;-79
2021/12/25 00:34:00;;;;;;;4.53;2.50;;;8.40;76.50;;;;;;5000977;28;46581;-83
2021/12/25 00:36:25;;;;;;;2.73;1.80;;;8.40;76.50;;;;;;4999413;28;46594;-81
2021/12/25 00:38:52;;;;;;;3.03;2.07;;;8.40;76.50;;;;;;4995255;28;46462;-81
2021/12/25 00:41:22;;;;;;;3.63;2.30;;;8.40;76.60;;;;;;4993513;28;45744;-81
2021/12/25 00:43:49;;;;;;;3.10;2.10;;;8.40;76.50;;;;;;4994211;28;46625;-80
2021/12/25 00:46:17;;;;;;;4.40;2.13;;;8.30;76.40;;;;;;4995891;28;46729;-83
2021/12/25 00:48:44;;;;;;;4.70;2.00;;;8.30;76.50;;;;;;4996731;28;46289;-80
2021/12/25 00:51:10;;;;;;;2.70;1.93;;;8.30;76.50;;;;;;4995513;28;46630;-80
2021/12/25 00:53:36;;;;;;;2.97;2.13;;;8.30;76.40;;;;;;4995178;28;46524;-82
2021/12/25 00:56:04;;;;;;;2.83;1.90;;;8.20;76.40;;;;;;4994010;28;46339;-81
2021/12/25 00:58:29;;;;;;;3.27;1.47;;;8.20;76.60;;;;;;4994550;28;46501;-80
2021/12/25 01:00:55;;;;;;;2.60;1.80;;;8.10;77.00;;;;;;4995530;28;46553;-82
2021/12/25 01:03:20;;;;;;;3.63;2.20;;;8.00;77.50;;;;;;4993906;28;46700;-80
2021/12/25 01:05:48;;;;;;;2.70;1.40;;;8.00;77.60;;;;;;4992411;28;47140;-82
2021/12/25 01:08:15;;;;;;;5.57;2.17;;;8.00;77.60;;;;;;5011069;28;46887;-83
2021/12/25 01:10:44;;;;;;;5.87;1.80;;;8.00;77.30;;;;;;4996499;28;46302;-78
2021/12/25 01:13:21;;;;;;;2.50;1.77;;;8.00;77.60;;;;;;4994596;28;46477;-82
2021/12/25 01:23:56;;;;;;;2.53;1.67;;;8.20;76.40;;;;;;4990270;28;46402;-79
2021/12/25 01:36:56;;;;;;;3.47;1.50;;;8.30;76.40;;;;;;4993507;28;46560;-81
2021/12/25 01:39:44;;;;;;;1.80;1.20;;;8.40;76.60;;;;;;4992201;28;46356;-80
2021/12/25 01:50:09;;;;;;;3.63;1.50;;;8.50;76.60;;;;;;4993992;28;46802;-82
2021/12/25 01:52:36;;;;;;;3.17;1.77;;;8.50;76.60;;;;;;4992529;28;46209;-80
2021/12/25 01:55:06;;;;;;;2.37;1.60;;;8.50;76.60;;;;;;4991925;28;46512;-80
2021/12/25 01:57:34;;;;;;;3.20;1.47;;;8.50;76.00;;;;;;5008215;28;49572;-81
2021/12/25 02:00:00;;;;;;;1.97;1.43;;;8.60;76.00;;;;;;5007208;28;46736;-82
2021/12/25 02:02:27;;;;;;;2.20;1.40;;;8.60;76.30;;;;;;4992607;28;46537;-83
2021/12/25 02:04:53;;;;;;;3.70;1.40;;;8.60;76.30;;;;;;4995334;28;46843;-82
2021/12/25 02:07:19;;;;;;;2.43;1.40;;;8.70;76.10;;;;;;4996398;28;46358;-82
2021/12/25 02:09:45;;;;;;;1.90;1.40;;;8.60;76.20;;;;;;5000670;28;46173;-80
2021/12/25 02:12:11;;;;;;;3.13;2.03;;;8.60;76.70;;;;;;4996984;28;46670;-82
2021/12/25 02:14:40;;;;;;;2.43;1.43;;;8.50;76.60;;;;;;4994883;28;46687;-83
2021/12/25 02:17:18;;;;;;;1.67;1.23;;;8.50;76.70;;;;;;5003158;28;48609;-83
2021/12/25 02:19:56;;;;;;;1.67;1.20;;;8.50;76.70;;;;;;4990690;28;46352;-80
2021/12/25 02:22:26;;;;;;;2.03;1.27;;;8.50;76.70;;;;;;4993214;28;46411;-81
2021/12/25 02:24:52;;;;;;;2.50;1.40;;;8.50;76.70;;;;;;4992938;28;46510;-81
2021/12/25 02:27:18;;;;;;;3.57;2.10;;;8.60;76.70;;;;;;4993034;28;46383;-82
2021/12/25 02:29:43;;;;;;;2.90;1.67;;;8.50;76.60;;;;;;4994638;28;46519;-81
2021/12/25 02:32:12;;;;;;;2.10;1.40;;;8.60;76.70;;;;;;4991842;28;46403;-79
2021/12/25 02:34:37;;;;;;;2.00;1.30;;;8.60;76.60;;;;;;5005311;28;46360;-82
2021/12/25 02:37:03;;;;;;;2.50;1.47;;;8.60;76.70;;;;;;4989507;28;47138;-80
2021/12/25 02:39:29;;;;;;;1.83;1.50;;;8.60;76.60;;;;;;4993000;28;46364;-80
2021/12/25 02:41:54;;;;;;;2.10;1.30;;;8.80;76.60;;;;;;5005312;28;46407;-79
2021/12/25 02:44:20;;;;;;;3.20;1.63;;;8.60;76.20;;;;;;4992492;28;46686;-81
2021/12/25 02:46:48;;;;;;;3.77;1.83;;;8.60;75.90;;;;;;4995536;28;46457;-82
2021/12/25 02:49:17;;;;;;;3.33;1.50;;;8.70;76.10;;;;;;4994362;28;46312;-81
2021/12/25 02:51:44;;;;;;;2.07;1.40;;;8.60;76.20;;;;;;5000897;28;46422;-82
2021/12/25 02:54:11;;;;;;;5.10;1.50;;;8.60;76.00;;;;;;5010179;28;46580;-80
2021/12/25 02:56:37;;;;;;;1.83;1.20;;;8.60;76.20;;;;;;4991225;28;46045;-80
2021/12/25 02:59:03;;;;;;;2.63;1.27;;;8.70;76.00;;;;;;4992315;28;46457;-82
2021/12/25 03:01:28;;;;;;;3.13;1.30;;;8.70;76.00;;;;;;4995394;28;46474;-80
2021/12/25 03:03:54;;;;;;;2.10;1.57;;;8.70;75.90;;;;;;4996146;28;46350;-81
2021/12/25 03:06:20;;;;;;;5.07;1.73;;;8.70;75.60;;;;;;4992767;28;46682;-80
2021/12/25 03:08:46;;;;;;;3.43;1.83;;;8.70;75.70;;;;;;5016203;28;46403;-80
2021/12/25 03:11:14;;;;;;;4.13;1.60;;;8.70;75.70;;;;;;4988223;28;46271;-79
2021/12/25 03:13:56;;;;;;;1.90;1.30;;;8.70;75.60;;;;;;4989982;28;46242;-83
2021/12/25 03:16:22;;;;;;;3.90;1.60;;;8.70;75.50;;;;;;4986416;28;48277;-80
2021/12/25 03:18:51;;;;;;;2.13;1.47;;;8.70;75.30;;;;;;4992580;28;46381;-80
2021/12/25 03:21:17;;;;;;;3.03;1.50;;;8.70;75.30;;;;;;4996105;28;46290;-82
2021/12/25 03:23:44;;;;;;;1.83;1.40;;;8.70;75.20;;;;;;4996544;28;46410;-82
2021/12/25 03:26:10;;;;;;;2.60;1.50;;;8.70;75.20;;;;;;4993579;28;46789;-81
2021/12/25 03:28:40;;;;;;;3.20;1.80;;;8.70;75.10;;;;;;4999922;28;47158;-81
2021/12/25 03:31:15;;;;;;;2.40;1.70;;;8.70;74.90;;;;;;4988766;28;46682;-82
2021/12/25 03:33:42;;;;;;;3.20;1.70;;;8.70;74.70;;;;;;4991011;28;46316;-80
2021/12/25 03:36:08;;;;;;;1.90;1.50;;;8.70;74.60;;;;;;5004562;28;48005;-78
2021/12/25 03:38:33;;;;;;;2.47;1.60;;;8.80;74.70;;;;;;4996109;28;46515;-80
2021/12/25 03:41:02;;;;;;;2.90;1.93;;;8.80;74.60;;;;;;4987937;28;46502;-80
2021/12/25 03:43:28;;;;;;;2.23;1.57;;;8.80;74.60;;;;;;4992054;28;46320;-80
2021/12/25 03:45:56;;;;;;;2.77;1.67;;;8.80;74.50;;;;;;4988153;28;47658;-81
2021/12/25 03:58:50;;;;;;;2.97;1.87;;;8.60;74.70;;;;;;4990018;28;46367;-82
2021/12/25 04:04:31;;;;;;;3.50;1.70;;;8.60;74.70;;;;;;4963105;28;46466;-80
2021/12/25 04:07:13;;;;;;;3.40;2.03;;;8.60;74.70;;;;;;4993057;28;46461;-81
2021/12/25 04:09:40;;;;;;;3.40;1.70;;;8.60;74.70;;;;;;5005323;28;46289;-82
2021/12/25 04:12:10;;;;;;;5.60;2.63;;;8.60;74.60;;;;;;4996977;28;45793;-81
2021/12/25 04:14:40;;;;;;;3.60;2.10;;;8.60;74.50;;;;;;5013941;28;46384;-79
2021/12/25 04:17:06;;;;;;;3.97;2.17;;;8.70;74.60;;;;;;4997245;28;47593;-82
2021/12/25 04:19:32;;;;;;;3.10;2.10;;;8.60;74.50;;;;;;4996091;28;46358;-84
2021/12/25 04:22:02;;;;;;;2.30;1.57;;;8.60;74.60;;;;;;5008586;28;46241;-82
2021/12/25 04:24:31;;;;;;;4.07;2.07;;;8.50;74.50;;;;;;5000868;28;46425;-81
2021/12/25 04:26:57;;;;;;;2.57;1.80;;;8.50;74.70;;;;;;5009356;28;48809;-80
2021/12/25 04:47:59;;;;;;;2.83;1.80;;;8.30;74.80;;;;;;4995053;28;46408;-82
2021/12/25 04:49:12;;;;;;;4.07;1.70;;;8.10;75.10;;;;;;4998152;28;46414;-81
2021/12/25 05:05:05;;;;;;;7.00;2.00;;;7.50;75.80;;;;;;4999154;28;46657;-81
2021/12/25 05:07:30;;;;;;;3.77;2.03;;;7.60;75.90;;;;;;4999195;28;46731;-82
2021/12/25 05:09:58;;;;;;;3.50;2.00;;;7.60;75.90;;;;;;5002692;28;49063;-79
2021/12/25 05:12:23;;;;;;;2.97;2.20;;;7.60;75.90;;;;;;4999911;28;46315;-81
2021/12/25 05:14:49;;;;;;;2.20;1.93;;;7.70;75.90;;;;;;4994943;28;46390;-80
2021/12/25 05:17:14;;;;;;;3.10;2.10;;;7.70;75.90;;;;;;4993993;28;46598;-81
2021/12/25 05:19:40;;;;;;;2.73;1.67;;;7.70;75.80;;;;;;4989959;28;46910;-81
2021/12/25 05:22:06;;;;;;;6.47;1.87;;;7.70;75.60;;;;;;5012302;28;46619;-81
2021/12/25 05:24:31;;;;;;;4.13;2.13;;;7.70;75.80;;;;;;5008195;28;46633;-81
2021/12/25 05:26:57;;;;;;;2.90;2.10;;;7.60;75.90;;;;;;4997801;28;46418;-82
2021/12/25 05:29:29;;;;;;;4.37;2.93;;;7.40;75.80;;;;;;5002133;28;48486;-82
2021/12/25 05:31:57;;;;;;;3.40;2.50;;;7.30;75.70;;;;;;5000324;28;46468;-81
2021/12/25 05:34:22;;;;;;;4.33;3.00;;;7.40;75.80;;;;;;5000430;28;46312;-82
2021/12/25 05:36:48;;;;;;;4.30;2.93;;;7.50;75.80;;;;;;4989211;28;46666;-80
2021/12/25 05:39:16;;;;;;;3.87;2.40;;;7.40;75.70;;;;;;4990513;28;46348;-82
2021/12/25 05:41:42;;;;;;;3.97;2.83;;;7.40;75.70;;;;;;4988117;28;46356;-81
2021/12/25 05:44:10;;;;;;;2.90;1.93;;;7.40;75.70;;;;;;4990288;28;46352;-81
2021/12/25 05:46:35;;;;;;;2.83;2.17;;;7.30;75.60;;;;;;5009755;28;46426;-80
2021/12/25 05:49:01;;;;;;;2.33;1.50;;;7.40;75.70;;;;;;4991486;28;47268;-81
2021/12/25 05:51:26;;;;;;;3.03;1.90;;;7.40;75.70;;;;;;4997355;28;46509;-80
2021/12/25 05:53:52;;;;;;;3.93;2.10;;;7.40;75.80;;;;;;4998520;28;46597;-82
2021/12/25 05:56:17;;;;;;;3.60;1.90;;;7.40;75.70;;;;;;4994896;28;46436;-81
2021/12/25 05:58:45;;;;;;;3.27;2.17;;;7.50;75.80;;;;;;4995604;28;46031;-82
2021/12/25 06:01:14;;;;;;;4.67;2.10;;;7.50;75.80;;;;;;4994906;28;46301;-81
2021/12/25 06:03:44;;;;;;;3.10;1.63;;;7.50;75.80;;;;;;4991419;28;46404;-80
2021/12/25 06:06:09;;;;;;;3.17;1.90;;;7.60;77.00;;;;;;4988156;28;46453;-81
2021/12/25 06:08:35;;;;;;;2.60;2.30;;;7.60;75.90;;;;;;4991046;28;46325;-82
2021/12/25 06:11:03;;;;;;;3.20;2.00;;;7.60;75.80;;;;;;4992983;28;46383;-79
2021/12/25 06:13:29;;;;;;;3.20;2.20;;;7.70;75.90;;;;;;4989882;28;46456;-81
2021/12/25 06:15:56;;;;;;;2.60;1.70;;;7.70;75.90;;;;;;5001941;28;46605;-82
2021/12/25 06:18:22;;;;;;;2.40;1.70;;;7.60;75.90;;;;;;4994424;28;46608;-82
2021/12/25 06:20:50;;;;;;;2.37;1.60;;;7.60;75.90;;;;;;5003798;28;46443;-81
2021/12/25 06:23:16;;;;;;;2.90;1.90;;;7.60;75.90;;;;;;4992371;28;45890;-80
2021/12/25 06:25:41;;;;;;;3.17;1.50;;;7.60;75.80;;;;;;5007394;28;46820;-81
2021/12/25 06:28:07;;;;;;;2.10;1.57;;;7.60;75.90;;;;;;5007129;28;48200;-83
2021/12/25 06:30:33;;;;;;;2.23;1.20;;;7.60;75.80;;;;;;4987684;28;46436;-82
2021/12/25 06:32:58;;;;;;;1.73;1.40;;;7.50;75.80;;;;;;5006645;28;46499;-81
2021/12/25 06:35:24;;;;;;;3.50;1.33;;;7.40;75.80;;;;;;4994904;28;46669;-81
2021/12/25 06:37:49;;;;;;;2.43;1.70;;;7.40;76.40;;;;;;4995024;28;46818;-79
2021/12/25 06:40:22;;;;;;;2.20;1.50;;;7.40;76.10;;;;;;4988156;28;46436;-79
2021/12/25 06:42:50;;;;;;;3.27;1.60;;;7.50;75.80;;;;;;4991746;28;45871;-78
2021/12/25 06:45:18;;;;;;;2.30;1.20;;;7.60;75.90;;;;;;4991862;28;46755;-77
2021/12/25 06:47:44;;;;;;;1.80;1.40;;;7.60;76.40;;;;;;4989812;28;47075;-78
2021/12/25 06:50:11;;;;;;;3.63;1.30;;;7.60;76.30;;;;;;4992099;28;46234;-79
2021/12/25 06:52:41;;;;;;;2.13;1.33;;;7.60;76.10;;;;;;4991610;28;46526;-80
2021/12/25 06:55:07;;;;;;;2.10;1.30;;;7.60;75.90;;;;;;4996453;28;46773;-79
2021/12/25 06:57:39;;;;;;;2.07;1.20;;;7.60;75.90;;;;;;4997782;28;47520;-81
2021/12/25 07:00:05;;;;;;;2.20;1.57;;;7.50;76.20;;;;;;4998940;28;46450;-78
2021/12/25 07:02:31;;;;;;;2.03;1.60;;;7.40;76.20;;;;;;4991036;28;46285;-79
2021/12/25 07:05:00;;;;;;;3.40;1.70;;;7.50;76.20;;;;;;4994722;28;46454;-81
2021/12/25 07:07:25;;;;;;;3.30;1.70;;;7.40;76.00;;;;;;4991096;28;49308;-84
2021/12/25 07:09:51;;;;;;;3.63;1.63;;;7.50;75.80;;;;;;4993989;28;46508;-83
2021/12/25 07:12:16;;;;;;;5.03;1.50;;;7.60;75.90;;;;;;4988525;28;46549;-80
2021/12/25 07:14:42;;;;;;;2.37;1.50;;;7.60;75.80;;;;;;4992347;28;46512;-80
2021/12/25 07:17:07;;;;;;;2.77;1.33;;;7.70;76.00;;;;;;4996091;28;48038;-82
2021/12/25 07:19:33;;;;;;;2.30;1.30;;;7.80;76.00;;;;;;4991126;28;46395;-81
2021/12/25 07:21:59;;;;;;;1.60;1.10;;;7.80;76.00;;;;;;4990241;28;46444;-82
2021/12/25 07:24:24;;;;;;;2.57;1.70;;;7.80;76.00;;;;;;4996060;28;45875;-80
2021/12/25 07:26:50;;;;;;;17.17;8.13;;;7.90;76.20;;;;;;4994716;28;46459;-80
2021/12/25 07:29:15;;;;;;;3.43;2.50;;;7.90;76.10;;;;;;4995775;28;46364;-81
2021/12/25 07:31:41;;;;;;;2.73;1.50;;;8.00;76.20;;;;;;4995872;28;46364;-79
2021/12/25 07:34:06;;;;;;;3.60;2.80;;;8.00;76.20;;;;;;4998548;28;46716;-79
2021/12/25 07:36:34;;;;;;;16.53;7.97;;;8.00;76.30;;;;;;4994299;28;46403;-81
2021/12/25 07:39:00;;;;;;;6.30;4.10;;;8.10;76.40;;;;;;5007277;28;46674;-81
2021/12/25 07:41:26;;;;;;;3.40;2.70;;;8.10;76.30;;;;;;4995591;28;46487;-84
2021/12/25 07:43:52;;;;;;;5.03;2.43;;;8.10;76.30;;;;;;4991996;28;46296;-80
2021/12/25 07:46:17;;;;;;;3.30;2.40;;;8.20;76.40;;;;;;4992814;28;47057;-79
2021/12/25 07:48:47;;;;;;;2.17;1.50;;;8.20;76.20;;;;;;4993403;28;45855;-79
2021/12/25 07:51:12;;;;;;;3.00;2.20;;;8.30;76.20;;;;;;4991492;28;46340;-79
2021/12/25 07:53:38;;;;;;;4.03;1.93;;;8.30;76.00;;;;;;4993519;28;46352;-77
2021/12/25 07:56:03;;;;;;;3.20;2.17;;;8.40;76.10;;;;;;5011235;28;46266;-79
2021/12/25 07:58:29;;;;;;;3.03;1.97;;;8.40;75.80;;;;;;4995076;28;46353;-79
2021/12/25 08:00:57;;;;;;;3.67;1.77;;;8.50;75.80;;;;;;4990480;28;46451;-79
2021/12/25 08:03:22;;;;;;;2.23;1.87;;;8.50;75.80;;;;;;4989038;28;46449;-77
2021/12/25 08:05:48;;;;;;;3.50;2.07;;;8.50;76.00;;;;;;4996771;28;46069;-79
2021/12/25 08:08:14;;;;;;;3.30;2.00;;;8.40;76.60;;;;;;4993553;28;45930;-79
2021/12/25 08:10:43;;;;;;;3.50;1.75;;;8.50;76.50;;;;;;5009010;28;46387;-77
2021/12/25 08:13:16;;;;;;;4.57;1.37;;;8.50;75.90;;;;;;4991171;28;46409;-77
2021/12/25 08:15:43;;;;;;;2.07;1.70;;;8.60;76.30;;;;;;5000125;28;47158;-78
2021/12/25 08:18:09;;;;;;;2.23;1.40;;;8.60;76.10;;;;;;4990682;28;46383;-77
2021/12/25 08:20:35;;;;;;;3.53;1.60;;;8.60;76.00;;;;;;4990116;28;46454;-77
2021/12/25 08:23:09;;;;;;;2.73;1.30;;;8.70;76.00;;;;;;4992272;28;46041;-78
2021/12/25 08:25:37;;;;;;;2.37;1.70;;;8.70;75.80;;;;;;4997897;28;48272;-77
2021/12/25 08:28:05;;;;;;;6.90;1.50;;;8.70;75.70;;;;;;4993138;28;46526;-78
2021/12/25 08:30:33;;;;;;;2.93;1.50;;;8.80;75.60;;;;;;4990181;28;46507;-78
2021/12/25 08:32:59;;;;;;;2.90;1.60;;;8.90;75.60;;;;;;4987218;28;46327;-78
2021/12/25 08:35:30;;;;;;;2.33;1.30;;;8.90;75.40;;;;;;4987670;28;46749;-78
2021/12/25 08:37:56;;;;;;;2.93;2.30;;;9.00;75.40;;;;;;4989030;28;46358;-79
2021/12/25 08:40:23;;;;;;;4.13;2.00;;;9.10;75.00;;;;;;4999239;28;46300;-79
2021/12/25 08:42:54;;;;;;;2.30;1.47;;;9.20;74.90;;;;;;4995103;28;46040;-79
2021/12/25 08:45:41;;;;;;;3.70;2.70;;;9.30;76.00;;;;;;4966457;28;47255;-78
2021/12/25 08:48:11;;;;;;;3.20;2.00;;;9.40;74.60;;;;;;4972508;28;46644;-79
2021/12/25 08:50:39;;;;;;;2.77;2.00;;;9.50;74.70;;;;;;4970919;28;45850;-81
2021/12/25 08:53:05;;;;;;;2.70;2.00;;;9.50;74.60;;;;;;4986212;28;46588;-80
2021/12/25 08:55:31;;;;;;;3.63;1.70;;;9.50;74.60;;;;;;4971714;28;46446;-77
2021/12/25 08:57:59;;;;;;;2.60;1.70;;;9.60;74.60;;;;;;4977965;28;46562;-79
2021/12/25 09:00:24;;;;;;;3.23;1.97;;;9.60;74.60;;;;;;4973744;28;46615;-79
2021/12/25 09:02:52;;;;;;;5.00;2.10;;;9.60;74.60;;;;;;4979307;28;46356;-79
2021/12/25 09:05:18;;;;;;;2.57;1.90;;;9.70;74.50;;;;;;4998090;28;49624;-78
2021/12/25 09:07:46;;;;;;;3.50;2.30;;;9.70;74.60;;;;;;4969867;28;46471;-78
2021/12/25 09:10:12;;;;;;;2.37;1.70;;;9.70;74.40;;;;;;4976889;28;46555;-79
2021/12/25 09:12:41;;;;;;;4.30;2.10;;;9.80;74.40;;;;;;4978200;28;46661;-80
2021/12/25 09:15:09;;;;;;;2.53;1.70;;;9.80;74.40;;;;;;4979327;28;47456;-82
2021/12/25 09:17:35;;;;;;;4.57;2.20;;;9.90;74.90;;;;;;4986779;28;46022;-79
2021/12/25 09:20:00;;;;;;;3.17;1.90;;;10.00;73.20;;;;;;4986122;28;46309;-79
2021/12/25 09:22:29;;;;;;;4.30;1.77;;;10.10;73.00;;;;;;4966658;28;46795;-79
2021/12/25 09:24:54;;;;;;;3.43;1.70;;;10.10;72.70;;;;;;4974447;28;46443;-80
2021/12/25 09:27:23;;;;;;;1.93;1.47;;;10.20;72.60;;;;;;4977062;28;46239;-77
2021/12/25 09:29:49;;;;;;;2.47;1.47;;;10.30;72.40;;;;;;4977660;28;45859;-79
2021/12/25 09:32:17;;;;;;;2.57;1.80;;;10.30;72.40;;;;;;4978073;28;46530;-77
2021/12/25 09:34:42;;;;;;;2.13;1.33;;;10.30;72.30;;;;;;4971348;28;47175;-77
2021/12/25 09:37:12;;;;;;;2.93;1.40;;;10.40;72.00;;;;;;4975461;28;46451;-80
2021/12/25 09:39:38;;;;;;;2.33;1.50;;;10.50;72.00;;;;;;4980229;28;46287;-80
2021/12/25 09:42:05;;;;;;;1.70;1.20;;;10.50;71.70;;;;;;4981617;28;46559;-79
2021/12/25 09:44:32;;;;;;;2.03;1.40;;;10.50;71.70;;;;;;4964999;28;48893;-80
2021/12/25 09:46:58;;;;;;;4.80;1.20;;;10.50;71.70;;;;;;4964209;28;46848;-82
2021/12/25 09:49:23;;;;;;;2.30;1.17;;;10.60;71.60;;;;;;4975594;28;46527;-80
2021/12/25 09:51:51;;;;;;;5.37;1.20;;;10.60;71.40;;;;;;4975342;28;46656;-79
2021/12/25 09:54:18;;;;;;;2.57;1.40;;;10.60;71.30;;;;;;4973711;28;48346;-81
2021/12/25 09:56:47;;;;;;;1.77;0.97;;;10.60;71.10;;;;;;4970848;28;48654;-83
2021/12/25 09:59:13;;;;;;;2.10;1.40;;;10.60;71.00;;;;;;4993110;28;46767;-83
2021/12/25 10:01:43;;;;;;;1.50;0.90;;;10.60;71.00;;;;;;4972133;28;45951;-81
2021/12/25 10:04:12;;;;;;;2.20;1.20;;;10.70;71.00;;;;;;4978308;28;49448;-82
2021/12/25 10:06:40;;;;;;;2.70;1.30;;;10.70;70.60;;;;;;4972473;28;46411;-80
2021/12/25 10:09:21;;;;;;;2.40;1.20;;;10.70;70.50;;;;;;4973415;28;46342;-81
2021/12/25 10:12:02;;;;;;;2.03;1.30;;;10.80;70.20;;;;;;4968541;28;46578;-80
2021/12/25 10:14:31;;;;;;;2.33;1.00;;;10.80;70.00;;;;;;4970158;28;46775;-81
2021/12/25 10:16:59;;;;;;;2.13;1.30;;;10.80;71.20;;;;;;4971928;28;46362;-83
2021/12/25 10:19:27;;;;;;;4.20;2.10;;;10.80;69.40;;;;;;4978805;28;46422;-84
2021/12/25 10:22:04;;;;;;;3.23;1.43;;;10.70;69.60;;;;;;4970291;28;46590;-82
2021/12/25 10:24:37;;;;;;;4.07;1.73;;;10.80;69.60;;;;;;4975426;28;46685;-81
2021/12/25 10:27:16;;;;;;;2.33;1.30;;;10.80;69.70;;;;;;4972357;28;46689;-82
2021/12/25 10:29:42;;;;;;;2.30;1.20;;;10.80;69.50;;;;;;4990651;28;46488;-82
2021/12/25 10:32:22;;;;;;;3.27;1.37;;;10.90;69.40;;;;;;4982186;28;46205;-83
2021/12/25 10:34:51;;;;;;;2.30;1.40;;;10.90;69.30;;;;;;4972713;28;46450;-80
2021/12/25 10:37:21;;;;;;;2.97;1.43;;;11.00;68.60;;;;;;4964840;28;46460;-82
2021/12/25 10:39:51;;;;;;;7.90;2.03;;;11.00;68.80;;;;;;4975016;28;46510;-81
2021/12/25 10:42:25;;;;;;;2.00;1.30;;;11.00;68.80;;;;;;4971639;28;46443;-79
2021/12/25 10:44:58;;;;;;;3.13;1.70;;;10.90;68.80;;;;;;4973545;28;47605;-80
2021/12/25 10:47:28;;;;;;;3.10;1.80;;;10.90;69.10;;;;;;4974020;28;46488;-83
2021/12/25 10:49:58;;;;;;;4.35;1.67;;;10.90;68.60;;;;;;4971383;28;46466;-80
2021/12/25 10:52:31;;;;;;;3.43;1.70;;;10.90;69.60;;;;;;4967982;28;46419;-81
2021/12/25 10:55:01;;;;;;;3.13;1.73;;;11.00;68.90;;;;;;4977872;28;46229;-83
2021/12/25 10:57:33;;;;;;;2.43;1.30;;;11.00;68.80;;;;;;4975098;28;46305;-82
2021/12/25 10:59:59;;;;;;;3.30;1.57;;;11.00;68.70;;;;;;4970746;28;46373;-81
2021/12/25 11:02:34;;;;;;;2.60;1.43;;;11.00;68.70;;;;;;4979681;28;46648;-81
2021/12/25 11:05:00;;;;;;;3.17;1.58;;;11.00;68.60;;;;;;4981710;28;48535;-81
2021/12/25 11:07:26;;;;;;;2.20;1.33;;;11.00;68.50;;;;;;4971342;28;46325;-83
2021/12/25 11:10:04;;;;;;;2.40;1.40;;;11.00;68.40;;;;;;4979380;28;46852;-80
2021/12/25 11:12:31;;;;;;;2.73;1.50;;;11.00;68.30;;;;;;4974116;28;46704;-82
2021/12/25 11:15:10;;;;;;;2.00;1.20;;;11.10;68.40;;;;;;4971690;28;46724;-82
2021/12/25 11:17:39;;;;;;;2.72;1.67;;;11.10;68.20;;;;;;4968349;28;45809;-80
2021/12/25 11:20:05;;;;;;;2.90;1.57;;;11.10;68.00;;;;;;4971312;28;46142;-80
2021/12/25 11:22:52;;;;;;;2.67;1.33;;;11.10;68.10;;;;;;4973155;28;46399;-81
2021/12/25 11:25:20;;;;;;;5.57;2.00;;;11.20;68.20;;;;;;4983629;28;48093;-84
2021/12/25 11:27:47;;;;;;;3.30;2.03;;;11.20;68.20;;;;;;4976510;28;45764;-82
2021/12/25 11:30:18;;;;;;;3.77;1.50;;;11.10;67.90;;;;;;4973683;28;46427;-83
2021/12/25 11:32:45;;;;;;;2.70;1.67;;;11.10;68.30;;;;;;4979437;28;46599;-84
2021/12/25 11:35:15;;;;;;;2.03;1.40;;;11.20;68.10;;;;;;4969985;28;48258;-80
2021/12/25 11:37:41;;;;;;;2.83;1.40;;;11.20;68.30;;;;;;4975725;28;46661;-81
2021/12/25 11:40:10;;;;;;;2.97;1.53;;;11.30;67.80;;;;;;4967360;28;46414;-80
2021/12/25 11:42:45;;;;;;;9.17;1.70;;;11.40;67.60;;;;;;4973764;28;46474;-81
2021/12/25 11:45:28;;;;;;;2.50;1.70;;;11.50;67.60;;;;;;4966383;28;48747;-79
2021/12/25 11:47:57;;;;;;;4.13;1.80;;;11.50;67.20;;;;;;4969727;28;46650;-81
2021/12/25 11:50:42;;;;;;;4.00;1.67;;;11.20;67.20;;;;;;4970461;28;46475;-81
2021/12/25 11:53:28;;;;;;;5.10;2.10;;;11.20;67.60;;;;;;4968801;28;46368;-81
2021/12/25 11:58:48;;;;;;;3.37;1.90;;;11.30;67.30;;;;;;4971214;28;46213;-82
2021/12/25 12:01:28;;;;;;;2.80;1.80;;;11.20;67.60;;;;;;4992181;28;46390;-85
2021/12/25 12:04:10;;;;;;;3.27;1.93;;;11.00;67.60;;;;;;4980087;28;46665;-82
2021/12/25 12:06:48;;;;;;;3.30;1.97;;;10.80;68.20;;;;;;4976668;28;47474;-84
2021/12/25 12:09:13;;;;;;;4.37;1.97;;;10.70;68.60;;;;;;4974811;28;46453;-81
2021/12/25 12:11:42;;;;;;;3.80;1.70;;;10.60;68.70;;;;;;4970270;28;46450;-81
2021/12/25 12:14:27;;;;;;;3.23;1.93;;;10.60;69.00;;;;;;4978623;28;46377;-81
2021/12/25 12:16:59;;;;;;;4.80;1.77;;;10.60;69.10;;;;;;4985958;28;48540;-81
2021/12/25 12:19:34;;;;;;;2.73;1.87;;;10.60;68.90;;;;;;4978631;28;46429;-82
2021/12/25 12:22:32;;;;;;;2.70;1.73;;;10.50;68.90;;;;;;4969194;28;46419;-80
2021/12/25 12:28:02;;;;;;;3.97;2.83;;;10.70;68.60;;;;;;4973021;28;47048;-81
2021/12/25 12:30:38;;;;;;;14.73;7.37;;;10.70;68.30;;;;;;4970291;28;46293;-82
2021/12/25 12:33:23;;;;;;;56.90;25.70;;;10.90;68.20;;;;;;4974613;28;45842;-81
2021/12/25 12:35:56;;;;;;;64.40;27.10;;;11.00;67.80;;;;;;4975426;28;46279;-80
2021/12/25 12:38:48;;;;;;;23.40;11.50;;;11.10;67.60;;;;;;4971354;28;47794;-83
2021/12/25 12:41:35;;;;;;;7.73;4.07;;;11.20;67.20;;;;;;4978442;28;46323;-82
2021/12/25 12:44:05;;;;;;;3.67;2.10;;;11.10;67.40;;;;;;4978670;28;46391;-81
2021/12/25 12:46:49;;;;;;;3.87;2.40;;;11.10;67.60;;;;;;4975097;28;46353;-82
2021/12/25 12:49:38;;;;;;;9.07;7.50;;;11.10;67.30;;;;;;4982722;28;49519;-83
2021/12/25 12:52:12;;;;;;;5.10;3.00;;;11.10;67.40;;;;;;4966422;28;46396;-82
2021/12/25 12:54:53;;;;;;;4.53;2.60;;;11.10;67.50;;;;;;4979388;28;46241;-83
2021/12/25 12:57:33;;;;;;;3.23;2.00;;;11.10;67.50;;;;;;4989103;28;46392;-82
2021/12/25 13:00:03;;;;;;;5.50;2.77;;;11.00;67.60;;;;;;4972064;28;46336;-82
2021/12/25 13:02:37;;;;;;;3.50;2.50;;;11.00;67.60;;;;;;4975041;28;46354;-83
2021/12/25 13:05:03;;;;;;;7.07;2.30;;;11.10;67.60;;;;;;4972277;28;46320;-82
2021/12/25 13:07:31;;;;;;;3.90;2.73;;;11.10;67.60;;;;;;4975033;28;46731;-82
2021/12/25 13:10:24;;;;;;;3.87;2.43;;;11.10;67.50;;;;;;4981227;28;48510;-84
2021/12/25 13:12:51;;;;;;;6.50;2.47;;;11.10;67.30;;;;;;4974263;28;46416;-83
2021/12/25 13:15:26;;;;;;;3.80;2.07;;;11.00;67.60;;;;;;4972996;28;46429;-82
2021/12/25 13:18:01;;;;;;;5.60;2.30;;;10.90;68.00;;;;;;4974542;28;46411;-82
2021/12/25 13:20:38;;;;;;;3.80;2.20;;;10.70;67.80;;;;;;4968986;28;47238;-83
2021/12/25 13:23:07;;;;;;;3.90;2.40;;;10.60;68.20;;;;;;4970690;28;45880;-81
2021/12/25 13:25:42;;;;;;;4.23;2.53;;;10.60;68.40;;;;;;4976899;28;46382;-84
2021/12/25 13:28:08;;;;;;;3.83;2.03;;;10.40;68.70;;;;;;5009645;28;46278;-83
2021/12/25 13:30:33;;;;;;;5.83;2.10;;;10.40;68.80;;;;;;4975017;28;48220;-80
2021/12/25 13:33:13;;;;;;;4.90;2.30;;;10.40;68.90;;;;;;4977175;28;46336;-83
2021/12/25 13:35:40;;;;;;;3.67;2.40;;;10.40;68.90;;;;;;4975905;28;46356;-81
2021/12/25 13:38:07;;;;;;;3.87;2.27;;;10.30;69.10;;;;;;4975483;28;46739;-82
2021/12/25 13:40:34;;;;;;;9.27;2.57;;;10.30;69.30;;;;;;4973227;28;46364;-85
2021/12/25 13:43:06;;;;;;;4.17;2.30;;;10.20;69.40;;;;;;4973700;28;46484;-81
2021/12/25 13:45:35;;;;;;;4.20;2.07;;;10.00;69.90;;;;;;4980062;28;46413;-84
2021/12/25 13:48:02;;;;;;;3.53;2.50;;;10.00;70.30;;;;;;4982520;28;46681;-84
2021/12/25 13:50:32;;;;;;;4.43;2.63;;;10.00;70.20;;;;;;4983285;28;47251;-81
2021/12/25 13:53:06;;;;;;;3.03;2.03;;;10.00;70.80;;;;;;4972153;28;46045;-82
2021/12/25 13:55:34;;;;;;;4.70;2.10;;;10.00;71.20;;;;;;4977797;28;46419;-83
2021/12/25 13:58:06;;;;;;;3.60;2.30;;;10.00;70.90;;;;;;4976635;28;46400;-82
2021/12/25 14:00:38;;;;;;;4.87;2.47;;;10.00;71.00;;;;;;4977128;28;46795;-82
2021/12/25 14:03:12;;;;;;;4.10;2.30;;;9.90;72.20;;;;;;4968552;28;46362;-80
2021/12/25 14:05:41;;;;;;;4.43;2.37;;;9.80;72.70;;;;;;4985283;28;46393;-81
2021/12/25 14:08:10;;;;;;;5.63;2.03;;;9.70;73.10;;;;;;4981550;28;46582;-81
2021/12/25 14:10:37;;;;;;;3.77;2.40;;;9.70;73.20;;;;;;4979005;28;46579;-80
2021/12/25 14:13:12;;;;;;;4.80;2.80;;;9.80;73.00;;;;;;4969915;28;46506;-81
2021/12/25 14:15:42;;;;;;;5.27;2.30;;;9.80;72.80;;;;;;4975470;28;46682;-80
2021/12/25 14:18:08;;;;;;;4.73;2.63;;;9.80;72.70;;;;;;4974416;28;46607;-81
2021/12/25 14:20:38;;;;;;;3.90;2.40;;;9.90;72.30;;;;;;4973941;28;47223;-81